createdAt,value
2023-04-30T00:01:03.432Z,15.14
2023-04-30T00:06:00.125Z,15.04
2023-04-30T00:10:57.352Z,14.60
2023-04-30T00:15:54.065Z,13.84
2023-04-30T00:20:53.062Z,13.77
2023-04-30T00:25:49.706Z,13.60
2023-04-30T00:30:48.928Z,13.56
2023-04-30T00:35:45.585Z,13.37
2023-04-30T00:40:43.353Z,13.32
2023-04-30T00:45:40.612Z,13.14
2023-04-30T00:50:37.982Z,13.26
2023-04-30T00:55:35.956Z,13.31
2023-04-30T01:00:33.267Z,13.35
2023-04-30T01:05:30.259Z,13.77
2023-04-30T01:10:32.326Z,14.06
2023-04-30T01:15:31.451Z,13.77
2023-04-30T01:20:29.568Z,13.80
2023-04-30T01:25:44.834Z,13.87
2023-04-30T01:30:45.923Z,13.50
2023-04-30T01:35:57.658Z,13.36
2023-04-30T01:40:57.607Z,13.03
2023-04-30T01:46:00.148Z,13.20
2023-04-30T01:51:01.832Z,13.22
2023-04-30T01:56:02.151Z,13.19
2023-04-30T02:00:59.954Z,13.31
2023-04-30T02:05:58.483Z,13.36
2023-04-30T02:10:55.108Z,13.53
2023-04-30T02:15:54.386Z,13.87
2023-04-30T02:20:52.140Z,14.52
2023-04-30T02:25:48.958Z,14.68
2023-04-30T02:30:45.643Z,13.94
2023-04-30T02:35:42.324Z,13.55
2023-04-30T02:40:40.574Z,13.44
2023-04-30T02:45:37.498Z,12.83
2023-04-30T02:50:34.339Z,12.65
2023-04-30T02:55:32.396Z,12.53
2023-04-30T03:00:29.785Z,12.30
2023-04-30T03:05:27.203Z,12.35
2023-04-30T03:10:23.893Z,12.35
2023-04-30T03:15:21.022Z,12.02
2023-04-30T03:20:18.583Z,12.03
2023-04-30T03:25:15.313Z,12.32
2023-04-30T03:30:12.047Z,12.27
2023-04-30T03:35:08.931Z,12.24
2023-04-30T03:40:08.949Z,12.54
2023-04-30T03:45:06.391Z,12.55
2023-04-30T03:50:03.666Z,12.88
2023-04-30T03:55:00.320Z,12.97
2023-04-30T03:59:58.262Z,12.91
2023-04-30T04:04:54.825Z,13.21
2023-04-30T04:09:51.506Z,12.61
2023-04-30T04:14:48.353Z,12.39
2023-04-30T04:19:45.866Z,12.48
2023-04-30T04:24:43.446Z,12.37
2023-04-30T04:29:43.810Z,12.33
2023-04-30T04:34:40.388Z,12.84
2023-04-30T04:39:37.957Z,12.88
2023-04-30T04:44:34.685Z,12.51
2023-04-30T04:49:31.417Z,12.29
2023-04-30T04:54:28.232Z,12.52
2023-04-30T04:59:26.051Z,12.83
2023-04-30T05:04:22.717Z,12.70
2023-04-30T05:09:19.849Z,12.43
2023-04-30T05:14:16.692Z,12.45
2023-04-30T05:19:14.440Z,12.65
2023-04-30T05:24:11.057Z,12.48
2023-04-30T05:29:07.957Z,12.32
2023-04-30T05:34:04.633Z,12.79
2023-04-30T05:39:05.182Z,12.97
2023-04-30T05:44:04.456Z,13.45
2023-04-30T05:49:01.468Z,13.99
2023-04-30T05:53:58.154Z,14.28
2023-04-30T05:58:55.473Z,14.26
2023-04-30T06:03:52.390Z,14.30
2023-04-30T06:08:51.922Z,14.76
2023-04-30T06:13:48.807Z,15.07
2023-04-30T06:18:46.087Z,14.87
2023-04-30T06:23:42.736Z,15.38
2023-04-30T06:28:39.539Z,15.52
2023-04-30T06:33:36.488Z,15.68
2023-04-30T06:38:34.000Z,15.22
2023-04-30T06:43:30.689Z,15.54
2023-04-30T06:48:30.369Z,15.81
2023-04-30T06:53:27.051Z,15.74
2023-04-30T06:58:24.365Z,15.80
2023-04-30T07:03:21.199Z,16.07
2023-04-30T07:08:17.925Z,16.43
2023-04-30T07:13:15.930Z,16.61
2023-04-30T07:18:13.423Z,16.73
2023-04-30T07:23:11.560Z,16.77
2023-04-30T07:28:08.443Z,16.87
2023-04-30T07:33:05.198Z,17.18
2023-04-30T07:38:02.878Z,17.18
2023-04-30T07:42:59.366Z,16.93
2023-04-30T07:47:56.058Z,17.05
2023-04-30T07:52:52.636Z,17.25
2023-04-30T07:57:49.854Z,17.35
2023-04-30T08:02:47.956Z,17.43
2023-04-30T08:07:44.992Z,17.54
2023-04-30T08:12:41.673Z,17.53
2023-04-30T08:17:39.230Z,17.64
2023-04-30T08:22:36.070Z,17.89
2023-04-30T08:27:33.015Z,18.24
2023-04-30T08:32:29.974Z,17.92
2023-04-30T08:37:27.437Z,18.14
2023-04-30T08:42:26.278Z,18.20
2023-04-30T08:47:26.789Z,18.24
2023-04-30T08:52:24.749Z,18.42
2023-04-30T08:57:21.990Z,18.47
2023-04-30T09:02:18.641Z,18.88
2023-04-30T09:07:15.515Z,18.84
2023-04-30T09:12:14.372Z,18.97
2023-04-30T09:17:21.407Z,18.92
2023-04-30T09:22:21.796Z,19.12
2023-04-30T09:27:18.936Z,19.20
2023-04-30T09:32:18.814Z,19.43
2023-04-30T09:37:15.754Z,19.33
2023-04-30T09:42:12.439Z,19.63
2023-04-30T09:47:11.378Z,19.54
2023-04-30T09:52:09.047Z,19.62
2023-04-30T09:57:10.264Z,19.42
2023-04-30T10:02:07.874Z,19.67
2023-04-30T10:07:06.824Z,19.61
2023-04-30T10:12:05.852Z,19.60
2023-04-30T10:17:06.250Z,19.84
2023-04-30T10:22:03.396Z,19.81
2023-04-30T10:27:00.785Z,19.97
2023-04-30T10:31:58.563Z,20.22
2023-04-30T10:36:58.483Z,20.22
2023-04-30T10:42:01.125Z,20.39
2023-04-30T10:47:02.797Z,20.40
2023-04-30T10:52:00.059Z,20.47
2023-04-30T10:57:09.906Z,20.44
2023-04-30T11:02:11.021Z,20.18
2023-04-30T11:07:09.511Z,20.49
2023-04-30T11:12:10.801Z,20.42
2023-04-30T11:17:09.034Z,20.58
2023-04-30T11:22:22.397Z,20.58
2023-04-30T11:27:23.249Z,20.60
2023-04-30T11:32:21.266Z,20.51
2023-04-30T11:37:19.468Z,20.80
2023-04-30T11:42:18.714Z,20.98
2023-04-30T11:47:16.159Z,21.16
2023-04-30T11:52:13.714Z,20.95
2023-04-30T11:57:10.519Z,20.99
2023-04-30T12:02:07.627Z,21.04
2023-04-30T12:07:08.124Z,20.87
2023-04-30T12:12:05.722Z,20.98
2023-04-30T12:17:02.434Z,21.15
2023-04-30T12:22:01.980Z,21.13
2023-04-30T12:26:59.630Z,21.29
2023-04-30T12:31:57.524Z,21.39
2023-04-30T12:36:58.108Z,21.50
2023-04-30T12:41:54.979Z,21.59
2023-04-30T12:46:55.995Z,21.47
2023-04-30T12:51:56.658Z,21.78
2023-04-30T12:57:00.993Z,21.81
2023-04-30T13:02:05.865Z,21.84
2023-04-30T13:07:04.056Z,21.70
2023-04-30T13:12:01.149Z,21.69
2023-04-30T13:16:58.306Z,21.67
2023-04-30T13:21:54.908Z,21.75
2023-04-30T13:26:52.172Z,21.89
2023-04-30T13:31:49.426Z,21.78
2023-04-30T13:36:46.584Z,22.03
2023-04-30T13:41:43.333Z,22.18
2023-04-30T13:46:40.952Z,22.24
2023-04-30T13:51:37.726Z,22.18
2023-04-30T13:56:36.437Z,22.38
2023-04-30T14:01:33.761Z,22.37
2023-04-30T14:06:31.529Z,22.43
2023-04-30T14:11:28.240Z,22.48
2023-04-30T14:16:28.277Z,22.50
2023-04-30T14:21:25.062Z,22.53
2023-04-30T14:26:22.576Z,22.61
2023-04-30T14:31:19.451Z,22.63
2023-04-30T14:36:16.199Z,22.63
2023-04-30T14:41:12.989Z,22.74
2023-04-30T14:46:11.249Z,22.76
2023-04-30T14:51:08.055Z,22.75
2023-04-30T14:56:06.495Z,22.78
2023-04-30T15:01:03.218Z,22.81
2023-04-30T15:06:00.637Z,22.84
2023-04-30T15:10:59.261Z,22.77
2023-04-30T15:15:56.063Z,22.83
2023-04-30T15:20:53.270Z,22.79
2023-04-30T15:25:53.635Z,22.79
2023-04-30T15:30:51.199Z,22.70
2023-04-30T15:35:48.271Z,22.65
2023-04-30T15:40:45.040Z,22.67
2023-04-30T15:45:42.517Z,22.63
2023-04-30T15:50:39.225Z,22.63
2023-04-30T15:55:36.282Z,22.58
2023-04-30T16:00:33.453Z,22.56
2023-04-30T16:05:31.028Z,22.52
2023-04-30T16:10:27.887Z,22.48
2023-04-30T16:15:25.165Z,22.41
2023-04-30T16:20:27.055Z,22.38
2023-04-30T16:25:24.410Z,22.35
2023-04-30T16:30:21.249Z,22.30
2023-04-30T16:35:18.064Z,22.28
2023-04-30T16:40:14.819Z,22.10
2023-04-30T16:45:12.284Z,22.16
2023-04-30T16:50:09.148Z,22.12
2023-04-30T16:55:06.668Z,22.10
2023-04-30T17:00:05.865Z,22.08
2023-04-30T17:05:03.461Z,22.01
2023-04-30T17:10:00.263Z,21.79
2023-04-30T17:14:57.246Z,21.78
2023-04-30T17:19:54.363Z,21.73
2023-04-30T17:24:51.932Z,21.73
2023-04-30T17:29:48.715Z,21.57
2023-04-30T17:34:45.903Z,21.75
2023-04-30T17:39:42.869Z,21.77
2023-04-30T17:44:40.628Z,21.48
2023-04-30T17:49:37.301Z,21.54
2023-04-30T17:54:34.075Z,21.57
2023-04-30T17:59:30.929Z,21.59
2023-04-30T18:04:28.219Z,21.36
2023-04-30T18:09:25.438Z,21.49
2023-04-30T18:14:22.280Z,21.43
2023-04-30T18:19:19.115Z,21.41
2023-04-30T18:24:17.063Z,21.29
2023-04-30T18:29:15.638Z,21.32
2023-04-30T18:34:17.096Z,21.25
2023-04-30T18:39:14.174Z,21.26
2023-04-30T18:44:12.954Z,21.32
2023-04-30T18:49:09.624Z,21.35
2023-04-30T18:54:06.363Z,21.28
2023-04-30T18:59:03.182Z,21.25
2023-04-30T19:04:00.973Z,21.20
2023-04-30T19:08:59.168Z,21.18
2023-04-30T19:13:55.817Z,20.87
2023-04-30T19:18:52.614Z,20.58
2023-04-30T19:23:50.108Z,19.89
2023-04-30T19:28:47.420Z,19.37
2023-04-30T19:33:45.811Z,18.99
2023-04-30T19:38:42.637Z,18.43
2023-04-30T19:43:40.086Z,18.34
2023-04-30T19:48:36.875Z,18.08
2023-04-30T19:53:33.615Z,18.58
2023-04-30T19:58:30.428Z,18.58
2023-04-30T20:03:28.240Z,18.72
2023-04-30T20:08:24.964Z,18.76
2023-04-30T20:13:23.829Z,18.27
2023-04-30T20:18:20.573Z,18.05
2023-04-30T20:23:18.668Z,18.01
2023-04-30T20:28:15.786Z,17.89
2023-04-30T20:33:13.408Z,17.90
2023-04-30T20:38:10.261Z,18.10
2023-04-30T20:43:09.361Z,18.32
2023-04-30T20:48:06.891Z,18.42
2023-04-30T20:53:03.576Z,17.95
2023-04-30T20:58:01.152Z,17.74
2023-04-30T21:02:58.760Z,18.09
2023-04-30T21:08:00.362Z,18.21
2023-04-30T21:12:57.218Z,18.28
2023-04-30T21:17:54.498Z,18.42
2023-04-30T21:22:54.704Z,18.40
2023-04-30T21:27:52.121Z,18.41
2023-04-30T21:32:49.079Z,18.60
2023-04-30T21:37:45.733Z,18.72
2023-04-30T21:42:43.095Z,18.75
2023-04-30T21:47:39.770Z,18.72
2023-04-30T21:52:36.426Z,18.72
2023-04-30T21:57:33.034Z,18.62
2023-04-30T22:02:32.437Z,18.75
2023-04-30T22:07:29.157Z,18.57
2023-04-30T22:12:26.201Z,18.83
2023-04-30T22:17:23.172Z,18.92
2023-04-30T22:22:20.599Z,18.56
2023-04-30T22:27:17.444Z,18.55
2023-04-30T22:32:14.139Z,18.34
2023-04-30T22:37:13.635Z,18.11
2023-04-30T22:42:11.000Z,17.86
2023-04-30T22:47:07.740Z,17.43
2023-04-30T22:52:04.483Z,16.68
2023-04-30T22:57:01.154Z,17.27
2023-04-30T23:02:01.625Z,17.45
2023-04-30T23:06:58.652Z,17.41
2023-04-30T23:11:55.297Z,17.44
2023-04-30T23:16:52.201Z,17.65
2023-04-30T23:21:49.537Z,17.50
2023-04-30T23:26:46.636Z,17.66
2023-04-30T23:31:43.319Z,17.62
2023-04-30T23:36:40.661Z,17.46
2023-04-30T23:41:37.865Z,17.68
2023-04-30T23:46:34.605Z,17.86
2023-04-30T23:51:32.048Z,17.98
2023-04-30T23:56:29.014Z,18.18
